sensor_id;sensor_type;location;lat;lon;timestamp;pressure;altitude;pressure_sealevel;temperature;humidity
71907;BME280;59781;52.090;5.030;2023-07-31T00:00:25;100940.31;;;17.30;100.00
71907;BME280;59781;52.090;5.030;2023-07-31T00:02:52;100946.59;;;17.43;100.00
71907;BME280;59781;52.090;5.030;2023-07-31T00:05:18;100942.59;;;17.46;100.00
71907;BME280;59781;52.090;5.030;2023-07-31T00:07:44;100935.25;;;17.46;100.00
71907;BME280;59781;52.090;5.030;2023-07-31T00:10:09;100932.75;;;17.38;100.00
71907;BME280;59781;52.090;5.030;2023-07-31T00:12:35;100936.53;;;17.37;100.00
71907;BME280;59781;52.090;5.030;2023-07-31T00:15:01;100926.25;;;17.53;100.00
71907;BME280;59781;52.090;5.030;2023-07-31T00:17:28;100924.56;;;17.52;100.00
71907;BME280;59781;52.090;5.030;2023-07-31T00:19:53;100922.63;;;17.59;100.00
71907;BME280;59781;52.090;5.030;2023-07-31T00:22:19;100930.19;;;17.50;100.00
71907;BME280;59781;52.090;5.030;2023-07-31T00:24:45;100928.75;;;17.54;100.00
71907;BME280;59781;52.090;5.030;2023-07-31T00:27:11;100921.59;;;17.60;100.00
71907;BME280;59781;52.090;5.030;2023-07-31T00:29:36;100924.53;;;17.71;100.00
71907;BME280;59781;52.090;5.030;2023-07-31T00:32:04;100923.75;;;17.51;100.00
71907;BME280;59781;52.090;5.030;2023-07-31T00:34:30;100932.34;;;17.41;100.00
71907;BME280;59781;52.090;5.030;2023-07-31T00:36:55;100937.59;;;17.43;100.00
71907;BME280;59781;52.090;5.030;2023-07-31T00:39:21;100928.97;;;17.39;100.00
71907;BME280;59781;52.090;5.030;2023-07-31T00:41:47;100927.53;;;17.43;100.00
71907;BME280;59781;52.090;5.030;2023-07-31T00:44:12;100928.97;;;17.39;100.00
71907;BME280;59781;52.090;5.030;2023-07-31T00:46:38;100927.47;;;17.50;100.00
71907;BME280;59781;52.090;5.030;2023-07-31T00:49:05;100926.09;;;17.34;100.00
71907;BME280;59781;52.090;5.030;2023-07-31T00:51:31;100933.19;;;17.35;100.00
71907;BME280;59781;52.090;5.030;2023-07-31T00:53:58;100928.13;;;17.45;100.00
71907;BME280;59781;52.090;5.030;2023-07-31T00:56:23;100924.19;;;17.41;100.00
71907;BME280;59781;52.090;5.030;2023-07-31T00:58:50;100919.97;;;17.39;100.00
71907;BME280;59781;52.090;5.030;2023-07-31T01:01:16;100913.69;;;17.45;100.00
71907;BME280;59781;52.090;5.030;2023-07-31T01:03:42;100921.19;;;17.49;100.00
71907;BME280;59781;52.090;5.030;2023-07-31T01:12:34;100913.41;;;17.60;100.00
71907;BME280;59781;52.090;5.030;2023-07-31T01:15:07;100913.91;;;17.43;100.00
71907;BME280;59781;52.090;5.030;2023-07-31T01:17:38;100904.22;;;17.54;100.00
71907;BME280;59781;52.090;5.030;2023-07-31T01:20:25;100909.75;;;17.41;100.00
71907;BME280;59781;52.090;5.030;2023-07-31T01:23:22;100917.75;;;17.23;100.00
71907;BME280;59781;52.090;5.030;2023-07-31T01:28:44;100919.34;;;17.43;100.00
71907;BME280;59781;52.090;5.030;2023-07-31T01:31:24;100921.84;;;17.45;100.00
71907;BME280;59781;52.090;5.030;2023-07-31T01:33:56;100906.84;;;17.23;100.00
71907;BME280;59781;52.090;5.030;2023-07-31T01:36:26;100914.75;;;17.37;100.00
71907;BME280;59781;52.090;5.030;2023-07-31T01:38:58;100918.75;;;17.35;100.00
71907;BME280;59781;52.090;5.030;2023-07-31T01:41:25;100917.09;;;17.20;100.00
71907;BME280;59781;52.090;5.030;2023-07-31T01:43:51;100921.69;;;17.20;100.00
71907;BME280;59781;52.090;5.030;2023-07-31T01:46:17;100920.03;;;17.26;100.00
71907;BME280;59781;52.090;5.030;2023-07-31T01:48:42;100913.56;;;17.13;100.00
71907;BME280;59781;52.090;5.030;2023-07-31T01:51:08;100907.06;;;17.08;100.00
71907;BME280;59781;52.090;5.030;2023-07-31T01:53:35;100907.69;;;17.10;100.00
71907;BME280;59781;52.090;5.030;2023-07-31T01:56:01;100896.81;;;17.16;100.00
71907;BME280;59781;52.090;5.030;2023-07-31T01:58:26;100891.13;;;17.25;100.00
71907;BME280;59781;52.090;5.030;2023-07-31T02:00:52;100885.47;;;17.26;100.00
71907;BME280;59781;52.090;5.030;2023-07-31T02:03:18;100880.47;;;17.16;100.00
71907;BME280;59781;52.090;5.030;2023-07-31T02:05:45;100883.59;;;17.20;100.00
71907;BME280;59781;52.090;5.030;2023-07-31T02:08:11;100878.81;;;17.15;100.00
71907;BME280;59781;52.090;5.030;2023-07-31T02:10:37;100876.09;;;17.09;100.00
71907;BME280;59781;52.090;5.030;2023-07-31T02:13:03;100865.41;;;17.14;100.00
71907;BME280;59781;52.090;5.030;2023-07-31T02:15:32;100858.47;;;17.25;100.00
71907;BME280;59781;52.090;5.030;2023-07-31T02:17:57;100855.31;;;17.34;100.00
71907;BME280;59781;52.090;5.030;2023-07-31T02:20:24;100860.75;;;17.34;100.00
71907;BME280;59781;52.090;5.030;2023-07-31T02:22:51;100848.72;;;17.55;100.00
71907;BME280;59781;52.090;5.030;2023-07-31T02:25:16;100844.84;;;17.31;100.00
71907;BME280;59781;52.090;5.030;2023-07-31T02:27:42;100849.41;;;17.37;100.00
71907;BME280;59781;52.090;5.030;2023-07-31T02:30:08;100853.66;;;17.27;100.00
71907;BME280;59781;52.090;5.030;2023-07-31T02:32:34;100850.91;;;17.33;100.00
71907;BME280;59781;52.090;5.030;2023-07-31T02:35:00;100853.66;;;17.20;100.00
71907;BME280;59781;52.090;5.030;2023-07-31T02:37:26;100855.69;;;17.38;100.00
71907;BME280;59781;52.090;5.030;2023-07-31T02:39:54;100840.03;;;17.33;100.00
71907;BME280;59781;52.090;5.030;2023-07-31T02:42:20;100846.44;;;17.52;100.00
71907;BME280;59781;52.090;5.030;2023-07-31T02:44:46;100839.19;;;17.77;100.00
71907;BME280;59781;52.090;5.030;2023-07-31T02:47:11;100835.13;;;17.48;100.00
71907;BME280;59781;52.090;5.030;2023-07-31T02:49:37;100839.69;;;17.61;100.00
71907;BME280;59781;52.090;5.030;2023-07-31T02:52:03;100824.59;;;17.59;100.00
71907;BME280;59781;52.090;5.030;2023-07-31T02:54:29;100826.81;;;17.37;100.00
71907;BME280;59781;52.090;5.030;2023-07-31T02:56:55;100827.63;;;17.44;100.00
71907;BME280;59781;52.090;5.030;2023-07-31T02:59:21;100820.78;;;17.66;100.00
71907;BME280;59781;52.090;5.030;2023-07-31T03:01:46;100825.47;;;17.53;100.00
71907;BME280;59781;52.090;5.030;2023-07-31T03:04:12;100813.69;;;17.59;100.00
71907;BME280;59781;52.090;5.030;2023-07-31T03:06:38;100822.25;;;17.31;100.00
71907;BME280;59781;52.090;5.030;2023-07-31T03:09:03;100816.75;;;17.37;100.00
71907;BME280;59781;52.090;5.030;2023-07-31T03:11:29;100822.84;;;17.33;100.00
71907;BME280;59781;52.090;5.030;2023-07-31T03:13:55;100818.00;;;17.41;100.00
71907;BME280;59781;52.090;5.030;2023-07-31T03:16:21;100809.31;;;17.58;100.00
71907;BME280;59781;52.090;5.030;2023-07-31T03:18:47;100814.81;;;17.51;100.00
71907;BME280;59781;52.090;5.030;2023-07-31T03:21:14;100813.56;;;17.47;100.00
71907;BME280;59781;52.090;5.030;2023-07-31T03:23:39;100805.44;;;17.40;100.00
71907;BME280;59781;52.090;5.030;2023-07-31T03:26:07;100810.47;;;17.37;100.00
71907;BME280;59781;52.090;5.030;2023-07-31T03:28:33;100814.44;;;17.41;100.00
71907;BME280;59781;52.090;5.030;2023-07-31T03:30:59;100804.38;;;17.41;100.00
71907;BME280;59781;52.090;5.030;2023-07-31T03:33:25;100801.84;;;17.46;100.00
71907;BME280;59781;52.090;5.030;2023-07-31T03:35:51;100811.44;;;17.49;100.00
71907;BME280;59781;52.090;5.030;2023-07-31T03:38:18;100797.91;;;17.36;100.00
71907;BME280;59781;52.090;5.030;2023-07-31T03:40:43;100802.06;;;17.38;100.00
71907;BME280;59781;52.090;5.030;2023-07-31T03:43:10;100795.88;;;17.25;100.00
71907;BME280;59781;52.090;5.030;2023-07-31T03:45:38;100788.56;;;17.63;100.00
71907;BME280;59781;52.090;5.030;2023-07-31T03:48:04;100793.69;;;17.40;100.00
71907;BME280;59781;52.090;5.030;2023-07-31T03:50:30;100785.50;;;17.46;100.00
71907;BME280;59781;52.090;5.030;2023-07-31T03:52:56;100784.53;;;17.28;100.00
71907;BME280;59781;52.090;5.030;2023-07-31T03:55:22;100775.00;;;17.12;100.00
71907;BME280;59781;52.090;5.030;2023-07-31T03:57:48;100781.66;;;17.23;100.00
71907;BME280;59781;52.090;5.030;2023-07-31T04:00:14;100773.84;;;17.33;100.00
71907;BME280;59781;52.090;5.030;2023-07-31T04:02:40;100773.25;;;17.31;100.00
71907;BME280;59781;52.090;5.030;2023-07-31T04:05:07;100762.75;;;17.28;100.00
71907;BME280;59781;52.090;5.030;2023-07-31T04:07:33;100764.25;;;17.24;100.00
71907;BME280;59781;52.090;5.030;2023-07-31T04:09:59;100766.16;;;17.16;100.00
71907;BME280;59781;52.090;5.030;2023-07-31T04:12:25;100762.38;;;17.24;100.00
71907;BME280;59781;52.090;5.030;2023-07-31T04:14:50;100759.03;;;17.22;100.00
71907;BME280;59781;52.090;5.030;2023-07-31T04:17:17;100755.63;;;17.33;100.00
71907;BME280;59781;52.090;5.030;2023-07-31T04:19:46;100756.34;;;17.15;100.00
71907;BME280;59781;52.090;5.030;2023-07-31T04:22:11;100756.88;;;16.92;100.00
71907;BME280;59781;52.090;5.030;2023-07-31T04:24:37;100765.28;;;16.71;100.00
71907;BME280;59781;52.090;5.030;2023-07-31T04:27:03;100762.38;;;16.73;100.00
71907;BME280;59781;52.090;5.030;2023-07-31T04:29:29;100764.59;;;16.89;100.00
71907;BME280;59781;52.090;5.030;2023-07-31T04:31:54;100765.06;;;16.79;100.00
71907;BME280;59781;52.090;5.030;2023-07-31T04:34:20;100771.56;;;16.65;100.00
71907;BME280;59781;52.090;5.030;2023-07-31T04:36:45;100761.47;;;16.85;100.00
71907;BME280;59781;52.090;5.030;2023-07-31T04:39:11;100760.88;;;16.83;100.00
71907;BME280;59781;52.090;5.030;2023-07-31T04:41:37;100755.84;;;16.80;100.00
71907;BME280;59781;52.090;5.030;2023-07-31T04:44:02;100756.25;;;16.84;100.00
71907;BME280;59781;52.090;5.030;2023-07-31T04:46:31;100752.31;;;16.67;100.00
71907;BME280;59781;52.090;5.030;2023-07-31T04:48:57;100759.59;;;16.86;100.00
71907;BME280;59781;52.090;5.030;2023-07-31T04:51:23;100751.22;;;16.87;100.00
71907;BME280;59781;52.090;5.030;2023-07-31T04:53:49;100740.31;;;16.94;100.00
71907;BME280;59781;52.090;5.030;2023-07-31T04:56:15;100738.97;;;16.52;100.00
71907;BME280;59781;52.090;5.030;2023-07-31T04:58:41;100744.41;;;16.52;100.00
71907;BME280;59781;52.090;5.030;2023-07-31T05:01:07;100739.38;;;16.49;100.00
71907;BME280;59781;52.090;5.030;2023-07-31T05:03:32;100741.66;;;16.72;100.00
71907;BME280;59781;52.090;5.030;2023-07-31T05:05:58;100748.78;;;16.73;100.00
71907;BME280;59781;52.090;5.030;2023-07-31T05:08:24;100748.50;;;16.87;100.00
71907;BME280;59781;52.090;5.030;2023-07-31T05:10:49;100731.00;;;16.57;100.00
71907;BME280;59781;52.090;5.030;2023-07-31T05:13:15;100730.38;;;16.55;100.00
71907;BME280;59781;52.090;5.030;2023-07-31T05:15:41;100735.63;;;16.43;100.00
71907;BME280;59781;52.090;5.030;2023-07-31T05:18:07;100737.69;;;16.54;100.00
71907;BME280;59781;52.090;5.030;2023-07-31T05:20:32;100737.53;;;16.43;100.00
71907;BME280;59781;52.090;5.030;2023-07-31T05:22:58;100728.50;;;16.49;100.00
71907;BME280;59781;52.090;5.030;2023-07-31T05:25:24;100728.09;;;16.45;100.00
71907;BME280;59781;52.090;5.030;2023-07-31T05:27:49;100719.09;;;16.45;100.00
71907;BME280;59781;52.090;5.030;2023-07-31T05:30:15;100723.88;;;16.49;100.00
71907;BME280;59781;52.090;5.030;2023-07-31T05:32:41;100714.03;;;16.61;100.00
71907;BME280;59781;52.090;5.030;2023-07-31T05:35:07;100714.44;;;16.65;100.00
71907;BME280;59781;52.090;5.030;2023-07-31T05:37:32;100701.91;;;16.64;100.00
71907;BME280;59781;52.090;5.030;2023-07-31T05:39:58;100706.72;;;16.75;100.00
71907;BME280;59781;52.090;5.030;2023-07-31T05:42:24;100697.53;;;16.63;100.00
71907;BME280;59781;52.090;5.030;2023-07-31T05:44:49;100697.09;;;16.73;100.00
71907;BME280;59781;52.090;5.030;2023-07-31T05:47:15;100698.09;;;16.78;100.00
71907;BME280;59781;52.090;5.030;2023-07-31T05:49:41;100696.03;;;16.60;100.00
71907;BME280;59781;52.090;5.030;2023-07-31T05:52:07;100694.56;;;16.71;100.00
71907;BME280;59781;52.090;5.030;2023-07-31T05:54:33;100690.53;;;16.87;100.00
71907;BME280;59781;52.090;5.030;2023-07-31T05:56:59;100688.31;;;16.57;100.00
71907;BME280;59781;52.090;5.030;2023-07-31T05:59:24;100680.88;;;16.91;100.00
71907;BME280;59781;52.090;5.030;2023-07-31T06:01:50;100685.34;;;16.79;100.00
71907;BME280;59781;52.090;5.030;2023-07-31T06:04:15;100680.97;;;16.78;100.00
71907;BME280;59781;52.090;5.030;2023-07-31T06:06:41;100682.41;;;16.80;100.00
71907;BME280;59781;52.090;5.030;2023-07-31T06:09:10;100678.13;;;16.98;100.00
71907;BME280;59781;52.090;5.030;2023-07-31T06:11:37;100671.19;;;17.08;100.00
71907;BME280;59781;52.090;5.030;2023-07-31T06:14:02;100669.13;;;17.04;100.00
71907;BME280;59781;52.090;5.030;2023-07-31T06:16:28;100672.47;;;17.06;100.00
71907;BME280;59781;52.090;5.030;2023-07-31T06:18:54;100676.38;;;17.16;100.00
71907;BME280;59781;52.090;5.030;2023-07-31T06:21:19;100666.41;;;17.35;100.00
71907;BME280;59781;52.090;5.030;2023-07-31T06:23:45;100673.78;;;17.28;100.00
71907;BME280;59781;52.090;5.030;2023-07-31T06:26:10;100671.00;;;17.03;100.00
71907;BME280;59781;52.090;5.030;2023-07-31T06:28:36;100661.25;;;17.20;100.00
71907;BME280;59781;52.090;5.030;2023-07-31T06:31:02;100662.53;;;17.18;100.00
71907;BME280;59781;52.090;5.030;2023-07-31T06:33:28;100660.97;;;17.35;100.00
71907;BME280;59781;52.090;5.030;2023-07-31T06:35:53;100653.03;;;17.02;100.00
71907;BME280;59781;52.090;5.030;2023-07-31T06:38:22;100651.13;;;17.34;100.00
71907;BME280;59781;52.090;5.030;2023-07-31T06:40:50;100646.34;;;17.30;100.00
71907;BME280;59781;52.090;5.030;2023-07-31T06:43:16;100646.63;;;17.22;100.00
71907;BME280;59781;52.090;5.030;2023-07-31T06:45:42;100647.00;;;17.25;100.00
71907;BME280;59781;52.090;5.030;2023-07-31T06:48:08;100646.56;;;17.28;100.00
71907;BME280;59781;52.090;5.030;2023-07-31T06:50:34;100637.69;;;17.39;100.00
71907;BME280;59781;52.090;5.030;2023-07-31T06:52:59;100642.03;;;17.47;100.00
71907;BME280;59781;52.090;5.030;2023-07-31T06:55:26;100626.78;;;17.39;100.00
71907;BME280;59781;52.090;5.030;2023-07-31T06:57:54;100626.16;;;17.44;100.00
71907;BME280;59781;52.090;5.030;2023-07-31T07:00:22;100616.09;;;17.44;100.00
71907;BME280;59781;52.090;5.030;2023-07-31T07:02:48;100630.97;;;17.42;100.00
71907;BME280;59781;52.090;5.030;2023-07-31T07:05:15;100627.84;;;17.38;100.00
71907;BME280;59781;52.090;5.030;2023-07-31T07:07:43;100624.84;;;17.46;100.00
71907;BME280;59781;52.090;5.030;2023-07-31T07:10:09;100627.97;;;17.50;100.00
71907;BME280;59781;52.090;5.030;2023-07-31T07:12:35;100628.06;;;17.37;100.00
71907;BME280;59781;52.090;5.030;2023-07-31T07:15:01;100636.91;;;17.32;100.00
71907;BME280;59781;52.090;5.030;2023-07-31T07:17:29;100635.75;;;17.22;100.00
71907;BME280;59781;52.090;5.030;2023-07-31T07:19:59;100635.84;;;17.33;100.00
71907;BME280;59781;52.090;5.030;2023-07-31T07:22:25;100628.25;;;17.67;100.00
71907;BME280;59781;52.090;5.030;2023-07-31T07:24:52;100631.94;;;17.54;100.00
71907;BME280;59781;52.090;5.030;2023-07-31T07:27:18;100629.31;;;17.66;100.00
71907;BME280;59781;52.090;5.030;2023-07-31T07:29:46;100636.03;;;17.63;100.00
71907;BME280;59781;52.090;5.030;2023-07-31T07:32:12;100631.94;;;17.79;100.00
71907;BME280;59781;52.090;5.030;2023-07-31T07:34:38;100632.06;;;17.91;100.00
71907;BME280;59781;52.090;5.030;2023-07-31T07:37:04;100632.44;;;17.94;100.00
71907;BME280;59781;52.090;5.030;2023-07-31T07:39:30;100628.78;;;17.82;100.00
71907;BME280;59781;52.090;5.030;2023-07-31T07:41:55;100620.84;;;17.99;100.00
71907;BME280;59781;52.090;5.030;2023-07-31T07:44:21;100620.53;;;17.70;100.00
71907;BME280;59781;52.090;5.030;2023-07-31T07:46:47;100628.38;;;17.78;100.00
71907;BME280;59781;52.090;5.030;2023-07-31T07:49:12;100625.59;;;17.85;100.00
71907;BME280;59781;52.090;5.030;2023-07-31T07:51:38;100627.69;;;17.90;100.00
71907;BME280;59781;52.090;5.030;2023-07-31T07:54:04;100631.22;;;17.90;100.00
71907;BME280;59781;52.090;5.030;2023-07-31T07:56:29;100627.22;;;17.93;100.00
71907;BME280;59781;52.090;5.030;2023-07-31T07:58:55;100623.19;;;17.95;100.00
71907;BME280;59781;52.090;5.030;2023-07-31T08:01:21;100614.41;;;17.93;100.00
71907;BME280;59781;52.090;5.030;2023-07-31T08:03:47;100607.09;;;18.12;100.00
71907;BME280;59781;52.090;5.030;2023-07-31T08:06:14;100605.50;;;18.04;100.00
71907;BME280;59781;52.090;5.030;2023-07-31T08:08:40;100613.63;;;18.11;100.00
71907;BME280;59781;52.090;5.030;2023-07-31T08:11:06;100606.09;;;18.25;100.00
71907;BME280;59781;52.090;5.030;2023-07-31T08:13:32;100602.28;;;18.81;100.00
71907;BME280;59781;52.090;5.030;2023-07-31T08:15:58;100596.31;;;18.54;100.00
71907;BME280;59781;52.090;5.030;2023-07-31T08:18:23;100598.53;;;18.45;100.00
71907;BME280;59781;52.090;5.030;2023-07-31T08:20:49;100600.72;;;18.18;100.00
71907;BME280;59781;52.090;5.030;2023-07-31T08:23:15;100604.28;;;18.19;100.00
71907;BME280;59781;52.090;5.030;2023-07-31T08:25:40;100604.25;;;18.55;100.00
71907;BME280;59781;52.090;5.030;2023-07-31T08:28:07;100592.69;;;18.60;100.00
71907;BME280;59781;52.090;5.030;2023-07-31T08:30:33;100593.88;;;18.64;100.00
71907;BME280;59781;52.090;5.030;2023-07-31T08:32:59;100589.97;;;18.42;100.00
71907;BME280;59781;52.090;5.030;2023-07-31T08:35:26;100591.47;;;18.56;100.00
71907;BME280;59781;52.090;5.030;2023-07-31T08:37:53;100592.47;;;18.43;100.00
71907;BME280;59781;52.090;5.030;2023-07-31T08:40:19;100595.38;;;18.30;100.00
71907;BME280;59781;52.090;5.030;2023-07-31T08:42:46;100591.63;;;18.43;100.00
71907;BME280;59781;52.090;5.030;2023-07-31T08:45:18;100592.63;;;18.12;100.00
71907;BME280;59781;52.090;5.030;2023-07-31T08:47:50;100588.31;;;18.22;100.00
71907;BME280;59781;52.090;5.030;2023-07-31T08:50:19;100589.38;;;18.40;100.00
71907;BME280;59781;52.090;5.030;2023-07-31T08:52:47;100586.72;;;18.33;100.00
71907;BME280;59781;52.090;5.030;2023-07-31T08:55:14;100587.31;;;18.53;100.00
71907;BME280;59781;52.090;5.030;2023-07-31T08:57:41;100594.50;;;18.48;100.00
71907;BME280;59781;52.090;5.030;2023-07-31T09:00:10;100591.16;;;18.46;100.00
71907;BME280;59781;52.090;5.030;2023-07-31T09:02:41;100593.53;;;18.42;100.00
71907;BME280;59781;52.090;5.030;2023-07-31T09:05:11;100603.53;;;18.67;100.00
71907;BME280;59781;52.090;5.030;2023-07-31T09:07:38;100600.41;;;18.63;100.00
71907;BME280;59781;52.090;5.030;2023-07-31T09:10:06;100596.78;;;18.69;100.00
71907;BME280;59781;52.090;5.030;2023-07-31T09:12:33;100594.13;;;18.62;100.00
71907;BME280;59781;52.090;5.030;2023-07-31T09:15:00;100589.81;;;18.55;100.00
71907;BME280;59781;52.090;5.030;2023-07-31T09:17:30;100593.16;;;18.87;100.00
71907;BME280;59781;52.090;5.030;2023-07-31T09:19:57;100598.53;;;18.94;100.00
71907;BME280;59781;52.090;5.030;2023-07-31T09:22:32;100588.19;;;18.84;100.00
71907;BME280;59781;52.090;5.030;2023-07-31T09:27:53;100574.34;;;18.67;100.00
71907;BME280;59781;52.090;5.030;2023-07-31T09:30:21;100578.19;;;18.78;100.00
71907;BME280;59781;52.090;5.030;2023-07-31T09:32:48;100574.84;;;18.76;100.00
71907;BME280;59781;52.090;5.030;2023-07-31T09:35:27;100577.06;;;18.67;100.00
71907;BME280;59781;52.090;5.030;2023-07-31T09:38:06;100578.06;;;18.54;100.00
71907;BME280;59781;52.090;5.030;2023-07-31T09:40:38;100582.41;;;18.44;100.00
71907;BME280;59781;52.090;5.030;2023-07-31T09:43:07;100586.59;;;18.58;100.00
71907;BME280;59781;52.090;5.030;2023-07-31T09:45:38;100584.75;;;18.58;100.00
71907;BME280;59781;52.090;5.030;2023-07-31T09:50:48;100590.72;;;18.67;100.00
71907;BME280;59781;52.090;5.030;2023-07-31T09:53:15;100576.16;;;18.73;100.00
71907;BME280;59781;52.090;5.030;2023-07-31T09:55:42;100590.03;;;18.72;100.00
71907;BME280;59781;52.090;5.030;2023-07-31T09:58:11;100590.13;;;18.95;100.00
71907;BME280;59781;52.090;5.030;2023-07-31T10:00:38;100583.09;;;18.87;100.00
71907;BME280;59781;52.090;5.030;2023-07-31T10:03:10;100575.66;;;18.65;100.00
71907;BME280;59781;52.090;5.030;2023-07-31T10:05:45;100578.38;;;18.65;100.00
71907;BME280;59781;52.090;5.030;2023-07-31T10:08:18;100581.34;;;18.93;100.00
71907;BME280;59781;52.090;5.030;2023-07-31T10:10:46;100579.44;;;18.94;100.00
71907;BME280;59781;52.090;5.030;2023-07-31T10:13:14;100575.41;;;18.96;100.00
71907;BME280;59781;52.090;5.030;2023-07-31T10:15:41;100572.88;;;19.25;100.00
71907;BME280;59781;52.090;5.030;2023-07-31T10:18:09;100574.53;;;19.26;100.00
71907;BME280;59781;52.090;5.030;2023-07-31T10:20:36;100567.31;;;19.31;100.00
71907;BME280;59781;52.090;5.030;2023-07-31T10:23:02;100574.88;;;19.17;100.00
71907;BME280;59781;52.090;5.030;2023-07-31T10:25:29;100572.41;;;19.28;100.00
71907;BME280;59781;52.090;5.030;2023-07-31T10:27:57;100562.28;;;19.16;100.00
71907;BME280;59781;52.090;5.030;2023-07-31T10:30:27;100563.81;;;19.01;100.00
71907;BME280;59781;52.090;5.030;2023-07-31T10:32:57;100575.19;;;18.98;100.00
71907;BME280;59781;52.090;5.030;2023-07-31T10:35:23;100576.06;;;19.10;100.00
71907;BME280;59781;52.090;5.030;2023-07-31T10:37:51;100567.47;;;19.06;100.00
71907;BME280;59781;52.090;5.030;2023-07-31T10:40:20;100568.78;;;19.04;100.00
71907;BME280;59781;52.090;5.030;2023-07-31T10:42:52;100577.69;;;18.99;100.00
71907;BME280;59781;52.090;5.030;2023-07-31T10:45:30;100572.72;;;19.08;100.00
71907;BME280;59781;52.090;5.030;2023-07-31T10:48:00;100574.78;;;19.36;100.00
71907;BME280;59781;52.090;5.030;2023-07-31T10:50:30;100574.03;;;19.17;100.00
71907;BME280;59781;52.090;5.030;2023-07-31T10:53:00;100571.78;;;19.14;100.00
71907;BME280;59781;52.090;5.030;2023-07-31T10:58:25;100556.59;;;19.18;100.00
71907;BME280;59781;52.090;5.030;2023-07-31T11:00:55;100563.47;;;19.09;100.00
71907;BME280;59781;52.090;5.030;2023-07-31T11:03:26;100561.75;;;18.96;100.00
71907;BME280;59781;52.090;5.030;2023-07-31T11:06:07;100571.78;;;19.14;100.00
71907;BME280;59781;52.090;5.030;2023-07-31T11:08:34;100573.19;;;19.16;100.00
71907;BME280;59781;52.090;5.030;2023-07-31T11:13:27;100569.28;;;19.12;100.00
71907;BME280;59781;52.090;5.030;2023-07-31T11:15:54;100567.41;;;19.36;100.00
71907;BME280;59781;52.090;5.030;2023-07-31T11:18:19;100558.06;;;19.56;100.00
71907;BME280;59781;52.090;5.030;2023-07-31T11:20:45;100557.50;;;19.00;100.00
71907;BME280;59781;52.090;5.030;2023-07-31T11:23:11;100569.00;;;18.90;100.00
71907;BME280;59781;52.090;5.030;2023-07-31T11:25:39;100555.50;;;19.07;100.00
71907;BME280;59781;52.090;5.030;2023-07-31T11:28:12;100565.06;;;19.28;100.00
71907;BME280;59781;52.090;5.030;2023-07-31T11:30:41;100553.94;;;19.00;100.00
71907;BME280;59781;52.090;5.030;2023-07-31T11:33:09;100558.97;;;19.14;100.00
71907;BME280;59781;52.090;5.030;2023-07-31T11:35:47;100554.09;;;18.75;100.00
71907;BME280;59781;52.090;5.030;2023-07-31T11:38:29;100552.03;;;18.88;100.00
71907;BME280;59781;52.090;5.030;2023-07-31T11:40:58;100553.22;;;18.92;100.00
71907;BME280;59781;52.090;5.030;2023-07-31T11:43:25;100550.75;;;19.03;100.00
71907;BME280;59781;52.090;5.030;2023-07-31T11:45:57;100553.50;;;19.14;100.00
71907;BME280;59781;52.090;5.030;2023-07-31T11:48:29;100540.81;;;19.32;100.00
71907;BME280;59781;52.090;5.030;2023-07-31T11:51:00;100535.72;;;19.24;100.00
71907;BME280;59781;52.090;5.030;2023-07-31T11:53:41;100546.00;;;18.98;100.00
71907;BME280;59781;52.090;5.030;2023-07-31T11:56:14;100549.09;;;19.02;100.00
71907;BME280;59781;52.090;5.030;2023-07-31T11:58:46;100553.16;;;19.34;100.00
71907;BME280;59781;52.090;5.030;2023-07-31T12:01:15;100556.44;;;19.01;100.00
71907;BME280;59781;52.090;5.030;2023-07-31T12:03:46;100560.69;;;18.97;100.00
71907;BME280;59781;52.090;5.030;2023-07-31T12:06:13;100557.97;;;18.97;100.00
71907;BME280;59781;52.090;5.030;2023-07-31T12:08:38;100553.47;;;19.03;100.00
71907;BME280;59781;52.090;5.030;2023-07-31T12:11:05;100557.13;;;18.97;100.00
71907;BME280;59781;52.090;5.030;2023-07-31T12:13:35;100565.44;;;18.90;100.00
71907;BME280;59781;52.090;5.030;2023-07-31T12:16:03;100560.34;;;18.94;100.00
71907;BME280;59781;52.090;5.030;2023-07-31T12:18:33;100559.19;;;19.01;100.00
71907;BME280;59781;52.090;5.030;2023-07-31T12:21:04;100543.38;;;18.91;100.00
71907;BME280;59781;52.090;5.030;2023-07-31T12:23:33;100538.03;;;18.97;100.00
71907;BME280;59781;52.090;5.030;2023-07-31T12:26:05;100533.78;;;19.01;100.00
71907;BME280;59781;52.090;5.030;2023-07-31T12:28:48;100530.56;;;18.92;100.00
71907;BME280;59781;52.090;5.030;2023-07-31T12:31:17;100528.66;;;19.04;100.00
71907;BME280;59781;52.090;5.030;2023-07-31T12:33:46;100534.78;;;19.18;100.00
71907;BME280;59781;52.090;5.030;2023-07-31T12:36:16;100518.13;;;19.08;100.00
71907;BME280;59781;52.090;5.030;2023-07-31T12:38:44;100517.56;;;19.17;100.00
71907;BME280;59781;52.090;5.030;2023-07-31T12:41:10;100522.88;;;19.24;100.00
71907;BME280;59781;52.090;5.030;2023-07-31T12:43:37;100525.41;;;19.72;100.00
71907;BME280;59781;52.090;5.030;2023-07-31T12:46:05;100514.16;;;19.57;100.00
71907;BME280;59781;52.090;5.030;2023-07-31T12:48:34;100509.75;;;19.56;100.00
71907;BME280;59781;52.090;5.030;2023-07-31T12:51:02;100498.34;;;19.71;100.00
71907;BME280;59781;52.090;5.030;2023-07-31T12:53:28;100507.38;;;19.71;100.00
71907;BME280;59781;52.090;5.030;2023-07-31T12:55:55;100492.47;;;19.91;100.00
71907;BME280;59781;52.090;5.030;2023-07-31T12:58:21;100494.94;;;20.04;100.00
71907;BME280;59781;52.090;5.030;2023-07-31T13:00:47;100485.00;;;19.98;100.00